sensor_id;sensor_type;location;lat;lon;timestamp;P1;durP1;ratioP1;P2;durP2;ratioP2
12451;SDS011;72521;48.924;12.204;2024-01-15T00:04:36;42.23;;;18.57;;
12451;SDS011;72521;48.924;12.204;2024-01-15T00:09:42;34.77;;;14.40;;
12451;SDS011;72521;48.924;12.204;2024-01-15T00:14:47;35.33;;;15.20;;
12451;SDS011;72521;48.924;12.204;2024-01-15T00:19:51;40.33;;;17.27;;
12451;SDS011;72521;48.924;12.204;2024-01-15T00:24:57;26.77;;;13.37;;
12451;SDS011;72521;48.924;12.204;2024-01-15T00:30:01;29.57;;;13.97;;
12451;SDS011;72521;48.924;12.204;2024-01-15T00:35:06;33.77;;;15.57;;
12451;SDS011;72521;48.924;12.204;2024-01-15T00:40:12;22.50;;;9.10;;
12451;SDS011;72521;48.924;12.204;2024-01-15T00:45:16;10.10;;;5.50;;
12451;SDS011;72521;48.924;12.204;2024-01-15T00:50:20;31.37;;;15.40;;
12451;SDS011;72521;48.924;12.204;2024-01-15T00:55:26;7.70;;;5.10;;
12451;SDS011;72521;48.924;12.204;2024-01-15T01:00:31;33.97;;;16.23;;
12451;SDS011;72521;48.924;12.204;2024-01-15T01:05:36;16.73;;;7.90;;
12451;SDS011;72521;48.924;12.204;2024-01-15T01:10:41;42.23;;;17.73;;
12451;SDS011;72521;48.924;12.204;2024-01-15T01:15:46;37.27;;;17.83;;
12451;SDS011;72521;48.924;12.204;2024-01-15T01:20:50;16.10;;;8.17;;
12451;SDS011;72521;48.924;12.204;2024-01-15T01:25:56;24.23;;;9.20;;
12451;SDS011;72521;48.924;12.204;2024-01-15T01:31:02;26.77;;;14.20;;
12451;SDS011;72521;48.924;12.204;2024-01-15T01:36:07;19.57;;;9.90;;
12451;SDS011;72521;48.924;12.204;2024-01-15T01:41:13;23.97;;;9.77;;
12451;SDS011;72521;48.924;12.204;2024-01-15T01:46:18;18.83;;;8.10;;
12451;SDS011;72521;48.924;12.204;2024-01-15T01:51:22;16.10;;;7.30;;
12451;SDS011;72521;48.924;12.204;2024-01-15T01:56:29;16.30;;;8.43;;
12451;SDS011;72521;48.924;12.204;2024-01-15T02:01:34;25.77;;;11.93;;
12451;SDS011;72521;48.924;12.204;2024-01-15T02:06:38;32.43;;;11.67;;
12451;SDS011;72521;48.924;12.204;2024-01-15T02:11:44;9.47;;;5.67;;
12451;SDS011;72521;48.924;12.204;2024-01-15T02:16:50;29.67;;;12.13;;
12451;SDS011;72521;48.924;12.204;2024-01-15T02:21:54;9.27;;;5.07;;
12451;SDS011;72521;48.924;12.204;2024-01-15T02:26:59;9.20;;;4.70;;
12451;SDS011;72521;48.924;12.204;2024-01-15T02:32:04;29.13;;;12.23;;
12451;SDS011;72521;48.924;12.204;2024-01-15T02:37:09;27.73;;;10.57;;
12451;SDS011;72521;48.924;12.204;2024-01-15T02:42:14;22.70;;;10.17;;
12451;SDS011;72521;48.924;12.204;2024-01-15T02:47:18;17.23;;;9.33;;
12451;SDS011;72521;48.924;12.204;2024-01-15T02:52:23;30.83;;;11.97;;
12451;SDS011;72521;48.924;12.204;2024-01-15T02:57:28;8.53;;;4.03;;
12451;SDS011;72521;48.924;12.204;2024-01-15T03:02:32;16.00;;;6.10;;
12451;SDS011;72521;48.924;12.204;2024-01-15T03:07:38;12.47;;;4.77;;
12451;SDS011;72521;48.924;12.204;2024-01-15T03:12:44;21.50;;;7.17;;
12451;SDS011;72521;48.924;12.204;2024-01-15T03:17:48;17.70;;;7.20;;
12451;SDS011;72521;48.924;12.204;2024-01-15T03:22:53;11.60;;;5.47;;
12451;SDS011;72521;48.924;12.204;2024-01-15T03:27:58;8.30;;;3.83;;
12451;SDS011;72521;48.924;12.204;2024-01-15T03:33:02;18.67;;;6.70;;
12451;SDS011;72521;48.924;12.204;2024-01-15T03:38:07;21.37;;;9.47;;
12451;SDS011;72521;48.924;12.204;2024-01-15T03:43:13;15.17;;;4.43;;
12451;SDS011;72521;48.924;12.204;2024-01-15T03:48:17;19.60;;;8.80;;
12451;SDS011;72521;48.924;12.204;2024-01-15T03:53:21;19.53;;;9.47;;
12451;SDS011;72521;48.924;12.204;2024-01-15T03:58:27;18.63;;;8.17;;
12451;SDS011;72521;48.924;12.204;2024-01-15T04:03:31;14.57;;;6.17;;
12451;SDS011;72521;48.924;12.204;2024-01-15T04:08:35;13.03;;;5.50;;
12451;SDS011;72521;48.924;12.204;2024-01-15T04:13:40;13.17;;;4.93;;
12451;SDS011;72521;48.924;12.204;2024-01-15T04:18:44;8.27;;;3.53;;
12451;SDS011;72521;48.924;12.204;2024-01-15T04:23:48;10.43;;;5.43;;
12451;SDS011;72521;48.924;12.204;2024-01-15T04:28:54;15.07;;;6.23;;
12451;SDS011;72521;48.924;12.204;2024-01-15T04:33:58;16.97;;;5.97;;
12451;SDS011;72521;48.924;12.204;2024-01-15T04:39:02;14.20;;;6.67;;
12451;SDS011;72521;48.924;12.204;2024-01-15T04:44:08;18.43;;;7.70;;
12451;SDS011;72521;48.924;12.204;2024-01-15T04:49:12;9.50;;;5.03;;
12451;SDS011;72521;48.924;12.204;2024-01-15T04:54:16;19.27;;;9.37;;
12451;SDS011;72521;48.924;12.204;2024-01-15T04:59:22;16.43;;;7.43;;
12451;SDS011;72521;48.924;12.204;2024-01-15T05:04:26;13.33;;;6.93;;
12451;SDS011;72521;48.924;12.204;2024-01-15T05:09:30;13.00;;;6.20;;
12451;SDS011;72521;48.924;12.204;2024-01-15T05:14:36;16.23;;;7.93;;
12451;SDS011;72521;48.924;12.204;2024-01-15T05:19:41;23.43;;;9.43;;
12451;SDS011;72521;48.924;12.204;2024-01-15T05:24:45;21.47;;;8.93;;
12451;SDS011;72521;48.924;12.204;2024-01-15T05:29:52;22.13;;;11.10;;
12451;SDS011;72521;48.924;12.204;2024-01-15T05:34:57;21.30;;;10.87;;
12451;SDS011;72521;48.924;12.204;2024-01-15T05:40:01;14.53;;;7.83;;
12451;SDS011;72521;48.924;12.204;2024-01-15T05:45:08;19.40;;;9.83;;
12451;SDS011;72521;48.924;12.204;2024-01-15T05:50:13;17.37;;;9.03;;
12451;SDS011;72521;48.924;12.204;2024-01-15T05:55:17;19.10;;;9.40;;
12451;SDS011;72521;48.924;12.204;2024-01-15T06:00:23;12.50;;;6.27;;
12451;SDS011;72521;48.924;12.204;2024-01-15T06:05:27;14.10;;;7.77;;
12451;SDS011;72521;48.924;12.204;2024-01-15T06:10:31;17.13;;;8.87;;
12451;SDS011;72521;48.924;12.204;2024-01-15T06:15:37;18.37;;;9.67;;
12451;SDS011;72521;48.924;12.204;2024-01-15T06:20:41;9.53;;;5.20;;
12451;SDS011;72521;48.924;12.204;2024-01-15T06:25:45;17.23;;;7.50;;
12451;SDS011;72521;48.924;12.204;2024-01-15T06:30:51;18.03;;;8.40;;
12451;SDS011;72521;48.924;12.204;2024-01-15T06:35:55;8.93;;;4.23;;
12451;SDS011;72521;48.924;12.204;2024-01-15T06:40:59;5.07;;;3.43;;
12451;SDS011;72521;48.924;12.204;2024-01-15T06:46:04;12.10;;;5.50;;
12451;SDS011;72521;48.924;12.204;2024-01-15T06:51:09;8.60;;;4.70;;
12451;SDS011;72521;48.924;12.204;2024-01-15T06:56:13;9.43;;;4.77;;
12451;SDS011;72521;48.924;12.204;2024-01-15T07:01:19;9.67;;;3.97;;
12451;SDS011;72521;48.924;12.204;2024-01-15T07:06:23;9.90;;;4.47;;
12451;SDS011;72521;48.924;12.204;2024-01-15T07:11:27;7.00;;;3.77;;
12451;SDS011;72521;48.924;12.204;2024-01-15T07:16:33;6.03;;;2.10;;
12451;SDS011;72521;48.924;12.204;2024-01-15T07:21:39;9.63;;;5.23;;
12451;SDS011;72521;48.924;12.204;2024-01-15T07:26:45;11.73;;;5.13;;
12451;SDS011;72521;48.924;12.204;2024-01-15T07:31:51;6.57;;;3.40;;
12451;SDS011;72521;48.924;12.204;2024-01-15T07:36:55;10.60;;;5.10;;
12451;SDS011;72521;48.924;12.204;2024-01-15T07:42:00;10.43;;;4.80;;
12451;SDS011;72521;48.924;12.204;2024-01-15T07:47:06;7.57;;;2.90;;
12451;SDS011;72521;48.924;12.204;2024-01-15T07:52:11;8.10;;;3.53;;
12451;SDS011;72521;48.924;12.204;2024-01-15T07:57:15;8.53;;;3.80;;
12451;SDS011;72521;48.924;12.204;2024-01-15T08:02:21;2.60;;;2.00;;
12451;SDS011;72521;48.924;12.204;2024-01-15T08:07:24;6.43;;;3.40;;
12451;SDS011;72521;48.924;12.204;2024-01-15T08:12:29;9.93;;;4.90;;
12451;SDS011;72521;48.924;12.204;2024-01-15T08:17:35;7.67;;;3.63;;
12451;SDS011;72521;48.924;12.204;2024-01-15T08:22:39;6.63;;;3.93;;
12451;SDS011;72521;48.924;12.204;2024-01-15T08:27:43;6.80;;;2.77;;
12451;SDS011;72521;48.924;12.204;2024-01-15T08:32:49;9.50;;;4.87;;
12451;SDS011;72521;48.924;12.204;2024-01-15T08:37:54;6.67;;;3.90;;
12451;SDS011;72521;48.924;12.204;2024-01-15T08:43:00;8.03;;;4.07;;
12451;SDS011;72521;48.924;12.204;2024-01-15T08:48:06;5.27;;;2.23;;
12451;SDS011;72521;48.924;12.204;2024-01-15T08:53:10;6.97;;;3.63;;
12451;SDS011;72521;48.924;12.204;2024-01-15T08:58:14;3.70;;;1.93;;
12451;SDS011;72521;48.924;12.204;2024-01-15T09:03:21;8.37;;;4.57;;
12451;SDS011;72521;48.924;12.204;2024-01-15T09:08:27;8.33;;;4.03;;
12451;SDS011;72521;48.924;12.204;2024-01-15T09:13:32;6.47;;;2.80;;
12451;SDS011;72521;48.924;12.204;2024-01-15T09:18:37;6.53;;;3.57;;
12451;SDS011;72521;48.924;12.204;2024-01-15T09:23:41;5.03;;;2.70;;
12451;SDS011;72521;48.924;12.204;2024-01-15T09:28:46;5.73;;;3.10;;
12451;SDS011;72521;48.924;12.204;2024-01-15T09:33:52;5.03;;;2.67;;
12451;SDS011;72521;48.924;12.204;2024-01-15T09:38:58;4.97;;;3.07;;
12451;SDS011;72521;48.924;12.204;2024-01-15T09:44:02;8.40;;;4.20;;
12451;SDS011;72521;48.924;12.204;2024-01-15T09:49:08;5.93;;;3.10;;
12451;SDS011;72521;48.924;12.204;2024-01-15T09:54:13;5.07;;;2.37;;
12451;SDS011;72521;48.924;12.204;2024-01-15T09:59:19;4.97;;;2.57;;
12451;SDS011;72521;48.924;12.204;2024-01-15T10:04:24;3.13;;;2.00;;
12451;SDS011;72521;48.924;12.204;2024-01-15T10:09:29;8.57;;;3.67;;
12451;SDS011;72521;48.924;12.204;2024-01-15T10:14:33;2.97;;;2.03;;
12451;SDS011;72521;48.924;12.204;2024-01-15T10:19:38;2.37;;;1.37;;
12451;SDS011;72521;48.924;12.204;2024-01-15T10:24:49;2.33;;;1.60;;
12451;SDS011;72521;48.924;12.204;2024-01-15T10:29:54;3.90;;;2.40;;
12451;SDS011;72521;48.924;12.204;2024-01-15T10:35:06;6.37;;;3.43;;
12451;SDS011;72521;48.924;12.204;2024-01-15T10:40:11;6.63;;;3.33;;
12451;SDS011;72521;48.924;12.204;2024-01-15T10:45:16;3.50;;;2.10;;
12451;SDS011;72521;48.924;12.204;2024-01-15T10:50:22;4.80;;;2.43;;
12451;SDS011;72521;48.924;12.204;2024-01-15T10:55:26;4.87;;;2.67;;
12451;SDS011;72521;48.924;12.204;2024-01-15T11:00:32;3.50;;;2.13;;
12451;SDS011;72521;48.924;12.204;2024-01-15T11:05:38;3.83;;;2.40;;
12451;SDS011;72521;48.924;12.204;2024-01-15T11:10:45;5.03;;;2.77;;
12451;SDS011;72521;48.924;12.204;2024-01-15T11:15:55;2.67;;;1.33;;
12451;SDS011;72521;48.924;12.204;2024-01-15T11:21:24;2.20;;;1.57;;
12451;SDS011;72521;48.924;12.204;2024-01-15T11:26:33;2.63;;;1.30;;
12451;SDS011;72521;48.924;12.204;2024-01-15T11:31:58;4.93;;;2.87;;
12451;SDS011;72521;48.924;12.204;2024-01-15T11:37:08;5.67;;;1.83;;
12451;SDS011;72521;48.924;12.204;2024-01-15T11:42:13;2.13;;;1.07;;
12451;SDS011;72521;48.924;12.204;2024-01-15T11:47:22;3.40;;;1.67;;
12451;SDS011;72521;48.924;12.204;2024-01-15T11:52:51;2.63;;;1.83;;
12451;SDS011;72521;48.924;12.204;2024-01-15T11:58:07;3.33;;;1.97;;
12451;SDS011;72521;48.924;12.204;2024-01-15T12:03:12;6.37;;;3.17;;
12451;SDS011;72521;48.924;12.204;2024-01-15T12:08:21;7.43;;;3.70;;
12451;SDS011;72521;48.924;12.204;2024-01-15T12:13:27;6.17;;;3.53;;
12451;SDS011;72521;48.924;12.204;2024-01-15T12:18:31;7.50;;;3.73;;
12451;SDS011;72521;48.924;12.204;2024-01-15T12:23:37;3.07;;;2.27;;
12451;SDS011;72521;48.924;12.204;2024-01-15T12:28:42;1.33;;;0.80;;
12451;SDS011;72521;48.924;12.204;2024-01-15T12:33:46;5.27;;;3.00;;
12451;SDS011;72521;48.924;12.204;2024-01-15T12:38:51;5.80;;;2.63;;
12451;SDS011;72521;48.924;12.204;2024-01-15T12:43:56;2.70;;;1.47;;
12451;SDS011;72521;48.924;12.204;2024-01-15T12:49:00;1.53;;;1.13;;
12451;SDS011;72521;48.924;12.204;2024-01-15T12:54:09;2.70;;;1.40;;
12451;SDS011;72521;48.924;12.204;2024-01-15T12:59:14;3.33;;;2.10;;
12451;SDS011;72521;48.924;12.204;2024-01-15T13:04:23;2.40;;;1.57;;
12451;SDS011;72521;48.924;12.204;2024-01-15T13:09:30;6.70;;;2.90;;
12451;SDS011;72521;48.924;12.204;2024-01-15T13:14:34;3.50;;;1.70;;
12451;SDS011;72521;48.924;12.204;2024-01-15T13:19:38;4.03;;;1.93;;
12451;SDS011;72521;48.924;12.204;2024-01-15T13:24:44;2.90;;;1.47;;
12451;SDS011;72521;48.924;12.204;2024-01-15T13:29:48;4.83;;;2.93;;
12451;SDS011;72521;48.924;12.204;2024-01-15T13:34:52;3.63;;;2.40;;
12451;SDS011;72521;48.924;12.204;2024-01-15T13:39:58;9.83;;;2.80;;
12451;SDS011;72521;48.924;12.204;2024-01-15T13:45:03;2.60;;;1.80;;
12451;SDS011;72521;48.924;12.204;2024-01-15T13:50:09;3.93;;;2.47;;
12451;SDS011;72521;48.924;12.204;2024-01-15T13:55:15;3.77;;;2.30;;
12451;SDS011;72521;48.924;12.204;2024-01-15T14:00:19;7.00;;;3.00;;
12451;SDS011;72521;48.924;12.204;2024-01-15T14:05:25;8.97;;;4.20;;
12451;SDS011;72521;48.924;12.204;2024-01-15T14:10:31;5.03;;;2.60;;
12451;SDS011;72521;48.924;12.204;2024-01-15T14:15:35;4.37;;;2.07;;
12451;SDS011;72521;48.924;12.204;2024-01-15T14:20:40;7.17;;;3.57;;
12451;SDS011;72521;48.924;12.204;2024-01-15T14:25:45;6.13;;;2.47;;
12451;SDS011;72521;48.924;12.204;2024-01-15T14:30:50;5.37;;;2.53;;
12451;SDS011;72521;48.924;12.204;2024-01-15T14:35:54;5.30;;;3.70;;
12451;SDS011;72521;48.924;12.204;2024-01-15T14:41:00;6.37;;;2.53;;
12451;SDS011;72521;48.924;12.204;2024-01-15T14:46:04;4.40;;;2.60;;
12451;SDS011;72521;48.924;12.204;2024-01-15T14:51:08;3.60;;;2.50;;
12451;SDS011;72521;48.924;12.204;2024-01-15T14:56:14;3.40;;;2.07;;
12451;SDS011;72521;48.924;12.204;2024-01-15T15:01:19;6.60;;;4.60;;
12451;SDS011;72521;48.924;12.204;2024-01-15T15:06:24;4.63;;;1.73;;
12451;SDS011;72521;48.924;12.204;2024-01-15T15:11:31;5.23;;;3.23;;
12451;SDS011;72521;48.924;12.204;2024-01-15T15:16:36;6.37;;;2.67;;
12451;SDS011;72521;48.924;12.204;2024-01-15T15:21:40;6.00;;;3.93;;
12451;SDS011;72521;48.924;12.204;2024-01-15T15:26:46;5.93;;;3.63;;
12451;SDS011;72521;48.924;12.204;2024-01-15T15:31:50;5.93;;;3.83;;
12451;SDS011;72521;48.924;12.204;2024-01-15T15:36:54;5.53;;;3.87;;
12451;SDS011;72521;48.924;12.204;2024-01-15T15:42:00;9.40;;;5.67;;
12451;SDS011;72521;48.924;12.204;2024-01-15T15:47:04;9.43;;;7.23;;
12451;SDS011;72521;48.924;12.204;2024-01-15T15:52:08;9.50;;;6.37;;
12451;SDS011;72521;48.924;12.204;2024-01-15T15:57:15;15.83;;;8.17;;
12451;SDS011;72521;48.924;12.204;2024-01-15T16:02:19;10.13;;;6.47;;
12451;SDS011;72521;48.924;12.204;2024-01-15T16:07:23;2.83;;;2.43;;
12451;SDS011;72521;48.924;12.204;2024-01-15T16:12:31;4.90;;;3.37;;
12451;SDS011;72521;48.924;12.204;2024-01-15T16:17:35;7.93;;;5.60;;
12451;SDS011;72521;48.924;12.204;2024-01-15T16:22:59;2.83;;;2.20;;
12451;SDS011;72521;48.924;12.204;2024-01-15T16:28:25;3.43;;;1.60;;
12451;SDS011;72521;48.924;12.204;2024-01-15T16:33:30;5.00;;;2.63;;
12451;SDS011;72521;48.924;12.204;2024-01-15T16:38:34;3.33;;;2.40;;
12451;SDS011;72521;48.924;12.204;2024-01-15T16:43:40;2.90;;;2.13;;
12451;SDS011;72521;48.924;12.204;2024-01-15T16:48:44;3.07;;;2.20;;
12451;SDS011;72521;48.924;12.204;2024-01-15T16:53:49;3.60;;;2.13;;
12451;SDS011;72521;48.924;12.204;2024-01-15T16:58:54;2.83;;;1.73;;
12451;SDS011;72521;48.924;12.204;2024-01-15T17:03:59;3.53;;;2.23;;
12451;SDS011;72521;48.924;12.204;2024-01-15T17:09:03;3.10;;;1.90;;
12451;SDS011;72521;48.924;12.204;2024-01-15T17:14:08;7.83;;;4.77;;
12451;SDS011;72521;48.924;12.204;2024-01-15T17:19:12;6.60;;;2.83;;
12451;SDS011;72521;48.924;12.204;2024-01-15T17:24:16;4.00;;;2.30;;
12451;SDS011;72521;48.924;12.204;2024-01-15T17:29:22;7.00;;;4.43;;
12451;SDS011;72521;48.924;12.204;2024-01-15T17:34:26;6.33;;;2.57;;
12451;SDS011;72521;48.924;12.204;2024-01-15T17:39:30;7.10;;;3.87;;
12451;SDS011;72521;48.924;12.204;2024-01-15T17:44:36;3.53;;;2.03;;
12451;SDS011;72521;48.924;12.204;2024-01-15T17:49:40;4.93;;;2.47;;
12451;SDS011;72521;48.924;12.204;2024-01-15T17:54:46;5.30;;;4.10;;
12451;SDS011;72521;48.924;12.204;2024-01-15T17:59:51;3.50;;;2.10;;
12451;SDS011;72521;48.924;12.204;2024-01-15T18:04:56;3.27;;;2.67;;
12451;SDS011;72521;48.924;12.204;2024-01-15T18:10:01;3.97;;;2.30;;
12451;SDS011;72521;48.924;12.204;2024-01-15T18:15:09;4.77;;;2.10;;
12451;SDS011;72521;48.924;12.204;2024-01-15T18:20:13;6.37;;;3.90;;
12451;SDS011;72521;48.924;12.204;2024-01-15T18:25:18;5.37;;;3.67;;
12451;SDS011;72521;48.924;12.204;2024-01-15T18:30:23;6.03;;;4.03;;
12451;SDS011;72521;48.924;12.204;2024-01-15T18:35:28;3.90;;;2.33;;
12451;SDS011;72521;48.924;12.204;2024-01-15T18:40:32;4.00;;;3.00;;
12451;SDS011;72521;48.924;12.204;2024-01-15T18:45:40;1.73;;;1.60;;
12451;SDS011;72521;48.924;12.204;2024-01-15T18:50:45;7.43;;;3.77;;
12451;SDS011;72521;48.924;12.204;2024-01-15T18:55:53;3.33;;;2.40;;
12451;SDS011;72521;48.924;12.204;2024-01-15T19:01:01;4.90;;;3.43;;
12451;SDS011;72521;48.924;12.204;2024-01-15T19:06:05;7.03;;;5.20;;
12451;SDS011;72521;48.924;12.204;2024-01-15T19:11:11;4.33;;;3.20;;
12451;SDS011;72521;48.924;12.204;2024-01-15T19:16:17;5.37;;;3.17;;
12451;SDS011;72521;48.924;12.204;2024-01-15T19:21:24;8.07;;;3.67;;
12451;SDS011;72521;48.924;12.204;2024-01-15T19:26:28;6.80;;;3.73;;
12451;SDS011;72521;48.924;12.204;2024-01-15T19:31:33;4.07;;;2.87;;
12451;SDS011;72521;48.924;12.204;2024-01-15T19:36:38;3.63;;;2.60;;
12451;SDS011;72521;48.924;12.204;2024-01-15T19:41:42;7.07;;;3.80;;
12451;SDS011;72521;48.924;12.204;2024-01-15T19:46:48;5.07;;;3.73;;
12451;SDS011;72521;48.924;12.204;2024-01-15T19:51:53;2.77;;;2.23;;
12451;SDS011;72521;48.924;12.204;2024-01-15T19:56:57;7.03;;;4.83;;
12451;SDS011;72521;48.924;12.204;2024-01-15T20:02:03;2.97;;;2.37;;
12451;SDS011;72521;48.924;12.204;2024-01-15T20:07:08;2.97;;;1.80;;
12451;SDS011;72521;48.924;12.204;2024-01-15T20:12:13;5.17;;;3.10;;
12451;SDS011;72521;48.924;12.204;2024-01-15T20:17:18;3.97;;;2.67;;
12451;SDS011;72521;48.924;12.204;2024-01-15T20:22:26;4.30;;;2.93;;
12451;SDS011;72521;48.924;12.204;2024-01-15T20:27:34;6.93;;;2.90;;
12451;SDS011;72521;48.924;12.204;2024-01-15T20:32:40;3.70;;;2.47;;
12451;SDS011;72521;48.924;12.204;2024-01-15T20:37:44;4.83;;;3.20;;
12451;SDS011;72521;48.924;12.204;2024-01-15T20:42:49;7.23;;;3.00;;
12451;SDS011;72521;48.924;12.204;2024-01-15T20:47:55;4.63;;;2.23;;
12451;SDS011;72521;48.924;12.204;2024-01-15T20:53:00;6.17;;;4.60;;
12451;SDS011;72521;48.924;12.204;2024-01-15T20:58:06;5.57;;;3.23;;
12451;SDS011;72521;48.924;12.204;2024-01-15T21:03:12;3.87;;;2.67;;
12451;SDS011;72521;48.924;12.204;2024-01-15T21:08:17;5.10;;;3.00;;
12451;SDS011;72521;48.924;12.204;2024-01-15T21:13:21;6.50;;;3.63;;
12451;SDS011;72521;48.924;12.204;2024-01-15T21:18:26;3.03;;;1.90;;
12451;SDS011;72521;48.924;12.204;2024-01-15T21:23:30;2.13;;;1.47;;
12451;SDS011;72521;48.924;12.204;2024-01-15T21:28:34;2.00;;;1.77;;
12451;SDS011;72521;48.924;12.204;2024-01-15T21:33:41;3.40;;;2.70;;
12451;SDS011;72521;48.924;12.204;2024-01-15T21:38:48;14.67;;;5.63;;
12451;SDS011;72521;48.924;12.204;2024-01-15T21:43:52;4.07;;;2.20;;
12451;SDS011;72521;48.924;12.204;2024-01-15T21:48:57;6.90;;;4.40;;
12451;SDS011;72521;48.924;12.204;2024-01-15T21:54:08;6.37;;;3.77;;
12451;SDS011;72521;48.924;12.204;2024-01-15T21:59:12;4.63;;;2.90;;
12451;SDS011;72521;48.924;12.204;2024-01-15T22:04:18;6.27;;;4.23;;
12451;SDS011;72521;48.924;12.204;2024-01-15T22:09:24;6.00;;;3.53;;
12451;SDS011;72521;48.924;12.204;2024-01-15T22:14:33;8.53;;;4.80;;
12451;SDS011;72521;48.924;12.204;2024-01-15T22:19:40;5.60;;;3.77;;
12451;SDS011;72521;48.924;12.204;2024-01-15T22:24:44;6.30;;;3.10;;
12451;SDS011;72521;48.924;12.204;2024-01-15T22:29:49;9.37;;;5.23;;
12451;SDS011;72521;48.924;12.204;2024-01-15T22:34:57;6.23;;;3.30;;
12451;SDS011;72521;48.924;12.204;2024-01-15T22:40:04;9.30;;;4.10;;
12451;SDS011;72521;48.924;12.204;2024-01-15T22:45:10;3.77;;;2.87;;
12451;SDS011;72521;48.924;12.204;2024-01-15T22:50:19;7.00;;;3.23;;
12451;SDS011;72521;48.924;12.204;2024-01-15T22:55:23;7.17;;;4.13;;
12451;SDS011;72521;48.924;12.204;2024-01-15T23:00:27;5.53;;;3.43;;
12451;SDS011;72521;48.924;12.204;2024-01-15T23:05:33;5.33;;;2.93;;
12451;SDS011;72521;48.924;12.204;2024-01-15T23:10:37;4.73;;;2.87;;
12451;SDS011;72521;48.924;12.204;2024-01-15T23:15:41;2.17;;;1.67;;
12451;SDS011;72521;48.924;12.204;2024-01-15T23:20:47;5.70;;;2.90;;
12451;SDS011;72521;48.924;12.204;2024-01-15T23:25:51;3.60;;;2.50;;
12451;SDS011;72521;48.924;12.204;2024-01-15T23:30:55;3.00;;;1.90;;
12451;SDS011;72521;48.924;12.204;2024-01-15T23:36:01;2.67;;;1.93;;
12451;SDS011;72521;48.924;12.204;2024-01-15T23:41:07;5.80;;;3.47;;
12451;SDS011;72521;48.924;12.204;2024-01-15T23:46:19;3.27;;;2.17;;
12451;SDS011;72521;48.924;12.204;2024-01-15T23:51:25;5.43;;;3.27;;
12451;SDS011;72521;48.924;12.204;2024-01-15T23:56:29;1.03;;;0.87;;
